Time;durP1;ratioP1;P1;durP2;ratioP2;P2;SDS_P1;SDS_P2;PMS_P1;PMS_P2;Temp;Humidity;BMP_temperature;BMP_pressure;BME280_temperature;BME280_humidity;BME280_pressure;Samples;Min_cycle;Max_cycle;Signal;HPM_P1;HPM_P2
2021/12/06 00:01:29;;;;;;;0.80;0.80;;;15.30;45.00;;;;;;5086319;28;47011;-16
2021/12/06 00:03:58;;;;;;;1.10;1.00;;;15.30;45.10;;;;;;5086506;28;47039;-21
2021/12/06 00:06:26;;;;;;;1.15;1.00;;;15.30;45.10;;;;;;5086347;28;47248;-16
2021/12/06 00:08:53;;;;;;;1.23;0.90;;;15.30;45.10;;;;;;5086279;28;47910;-17
2021/12/06 00:11:21;;;;;;;1.27;1.17;;;15.30;45.10;;;;;;5085960;28;46876;-16
2021/12/06 00:13:49;;;;;;;1.27;0.90;;;15.30;45.00;;;;;;5086074;28;46846;-18
2021/12/06 00:16:19;;;;;;;1.13;1.00;;;15.30;45.10;;;;;;5086064;28;47039;-20
2021/12/06 00:18:46;;;;;;;1.10;1.00;;;15.20;45.10;;;;;;5085833;28;47939;-21
2021/12/06 00:21:12;;;;;;;1.02;0.85;;;15.20;45.10;;;;;;5085680;28;47454;-17
2021/12/06 00:23:40;;;;;;;0.73;0.73;;;15.20;45.10;;;;;;5086104;28;46934;-17
2021/12/06 00:26:08;;;;;;;1.10;1.00;;;15.20;45.10;;;;;;5086344;28;46899;-20
2021/12/06 00:28:36;;;;;;;0.80;0.80;;;15.20;45.10;;;;;;5085738;28;47800;-16
2021/12/06 00:31:03;;;;;;;0.93;0.90;;;15.20;45.10;;;;;;5085908;28;47079;-20
2021/12/06 00:33:30;;;;;;;1.10;1.00;;;15.10;45.10;;;;;;5085839;28;46916;-17
2021/12/06 00:36:03;;;;;;;1.13;0.95;;;15.10;45.10;;;;;;5086077;28;46850;-21
2021/12/06 00:38:29;;;;;;;0.73;0.70;;;15.20;45.20;;;;;;5086047;28;48063;-20
2021/12/06 00:40:56;;;;;;;1.20;1.02;;;15.10;45.20;;;;;;5085609;28;47434;-17
2021/12/06 00:43:23;;;;;;;1.08;0.80;;;15.10;45.10;;;;;;5085728;28;46970;-20
2021/12/06 00:45:51;;;;;;;0.85;0.85;;;15.10;45.20;;;;;;5085569;28;46915;-17
2021/12/06 00:48:17;;;;;;;1.10;1.00;;;15.10;45.20;;;;;;5085153;27;47076;-20
2021/12/06 00:50:44;;;;;;;1.05;0.90;;;15.10;45.20;;;;;;5085565;28;47279;-20
2021/12/06 00:53:11;;;;;;;0.90;0.90;;;15.10;45.20;;;;;;5085527;28;46896;-20
2021/12/06 00:55:38;;;;;;;1.73;1.02;;;15.10;45.20;;;;;;5085171;28;47111;-20
2021/12/06 00:58:06;;;;;;;1.13;1.13;;;15.10;45.20;;;;;;5085431;27;48766;-20
2021/12/06 01:00:35;;;;;;;1.83;0.95;;;15.00;45.20;;;;;;5085471;28;46905;-17
2021/12/06 01:03:03;;;;;;;1.52;1.10;;;15.00;45.10;;;;;;5085267;28;46862;-17
2021/12/06 01:05:30;;;;;;;1.25;1.15;;;15.00;45.10;;;;;;5085629;28;46950;-17
2021/12/06 01:07:57;;;;;;;1.42;1.00;;;15.00;45.20;;;;;;5085558;28;48385;-21
2021/12/06 01:10:23;;;;;;;1.67;1.15;;;15.00;45.30;;;;;;5085478;28;47077;-16
2021/12/06 01:12:50;;;;;;;1.15;1.05;;;15.00;45.30;;;;;;5085632;28;46831;-20
2021/12/06 01:15:17;;;;;;;1.13;1.00;;;15.00;45.30;;;;;;5085449;28;47230;-20
2021/12/06 01:17:44;;;;;;;1.17;1.08;;;15.00;45.30;;;;;;5085279;28;49359;-20
2021/12/06 01:20:15;;;;;;;1.13;1.10;;;14.90;45.20;;;;;;5085281;27;47287;-17
2021/12/06 01:22:46;;;;;;;1.08;1.00;;;14.90;45.20;;;;;;5085553;28;46890;-17
2021/12/06 01:25:25;;;;;;;1.42;1.08;;;14.90;45.20;;;;;;5085164;28;47051;-17
2021/12/06 01:28:19;;;;;;;0.90;0.85;;;14.90;45.20;;;;;;5085292;28;48386;-17
2021/12/06 01:30:57;;;;;;;0.93;0.90;;;14.90;45.30;;;;;;5085050;28;47044;-17
2021/12/06 01:33:41;;;;;;;1.10;1.00;;;14.80;45.20;;;;;;5085557;27;47028;-17
2021/12/06 01:39:12;;;;;;;1.17;1.08;;;14.80;45.30;;;;;;5082282;28;47350;-20
2021/12/06 01:41:40;;;;;;;1.13;1.13;;;14.70;45.30;;;;;;5085243;27;46886;-20
2021/12/06 01:44:09;;;;;;;1.02;0.80;;;14.70;45.40;;;;;;5085152;28;46786;-16
2021/12/06 01:46:41;;;;;;;1.13;1.02;;;14.80;45.40;;;;;;5084823;28;46909;-16
2021/12/06 01:49:08;;;;;;;1.02;0.85;;;14.70;45.40;;;;;;5085048;27;49074;-21
2021/12/06 01:51:36;;;;;;;1.00;0.90;;;14.70;45.50;;;;;;5084868;27;47148;-20
2021/12/06 01:54:03;;;;;;;1.27;0.80;;;14.70;45.40;;;;;;5085004;28;46898;-21
2021/12/06 01:56:30;;;;;;;2.20;1.20;;;14.70;45.50;;;;;;5084849;28;46951;-20
2021/12/06 01:58:56;;;;;;;1.10;1.00;;;14.70;45.50;;;;;;5085486;27;47838;-18
2021/12/06 02:01:23;;;;;;;0.85;0.82;;;14.70;45.50;;;;;;5088237;28;46897;-16
2021/12/06 02:03:50;;;;;;;1.20;0.90;;;14.60;45.40;;;;;;5088391;28;46759;-17
2021/12/06 02:06:17;;;;;;;0.90;0.90;;;14.60;45.40;;;;;;5088544;28;46845;-18
2021/12/06 02:08:45;;;;;;;0.82;0.80;;;14.60;45.50;;;;;;5088330;28;48238;-16
2021/12/06 02:11:12;;;;;;;0.75;0.75;;;14.60;45.40;;;;;;5087958;28;46846;-20
2021/12/06 02:13:45;;;;;;;1.00;1.00;;;14.60;45.50;;;;;;5088369;28;46881;-21
2021/12/06 02:16:12;;;;;;;0.88;0.88;;;14.60;45.50;;;;;;5088277;28;47031;-22
2021/12/06 02:18:47;;;;;;;0.93;0.93;;;14.60;45.60;;;;;;5087935;28;49098;-21
2021/12/06 02:21:18;;;;;;;1.02;0.70;;;14.50;45.60;;;;;;5087959;28;46871;-17
2021/12/06 02:23:44;;;;;;;1.30;0.85;;;14.60;45.50;;;;;;5088368;28;46989;-17
2021/12/06 02:26:12;;;;;;;0.93;0.93;;;14.50;45.50;;;;;;5087795;28;47519;-16
2021/12/06 02:28:38;;;;;;;0.95;0.95;;;14.50;45.50;;;;;;5087648;28;47760;-20
2021/12/06 02:31:05;;;;;;;1.30;0.88;;;14.50;45.50;;;;;;5087592;28;46885;-20
2021/12/06 02:33:32;;;;;;;1.13;1.02;;;14.50;45.60;;;;;;5087994;28;46866;-20
2021/12/06 02:35:58;;;;;;;1.05;0.73;;;14.50;45.60;;;;;;5087871;28;47151;-17
2021/12/06 02:38:26;;;;;;;1.35;1.00;;;14.50;45.60;;;;;;5087859;28;47815;-19
2021/12/06 02:40:53;;;;;;;1.00;1.00;;;14.40;45.50;;;;;;5088086;28;47267;-16
2021/12/06 02:43:20;;;;;;;1.58;0.98;;;14.50;45.60;;;;;;5087792;28;46804;-17
2021/12/06 02:45:46;;;;;;;0.80;0.80;;;14.50;45.60;;;;;;5087856;28;46868;-21
2021/12/06 02:48:14;;;;;;;1.15;0.90;;;14.40;45.60;;;;;;5087450;28;47201;-17
2021/12/06 02:50:42;;;;;;;0.88;0.80;;;14.40;45.50;;;;;;5087411;28;46993;-20
2021/12/06 02:53:09;;;;;;;1.00;0.88;;;14.40;45.60;;;;;;5087653;28;46770;-21
2021/12/06 02:55:38;;;;;;;0.82;0.82;;;14.50;45.60;;;;;;5087436;27;47115;-20
2021/12/06 02:58:14;;;;;;;1.00;0.90;;;14.40;45.50;;;;;;5087485;28;47089;-16
2021/12/06 03:00:42;;;;;;;0.80;0.80;;;14.40;45.50;;;;;;5087262;28;46878;-20
2021/12/06 03:03:09;;;;;;;0.90;0.70;;;14.40;45.50;;;;;;5087673;28;46755;-17
2021/12/06 03:05:36;;;;;;;0.90;0.80;;;14.40;45.40;;;;;;5087338;28;47317;-17
2021/12/06 03:08:03;;;;;;;0.80;0.80;;;14.40;45.50;;;;;;5087079;28;48549;-20
2021/12/06 03:10:29;;;;;;;1.02;0.82;;;14.40;45.40;;;;;;5086917;27;47307;-16
2021/12/06 03:12:58;;;;;;;0.77;0.77;;;14.40;45.40;;;;;;5087446;28;47041;-17
2021/12/06 03:15:25;;;;;;;0.77;0.77;;;14.40;45.40;;;;;;5086951;28;46936;-16
2021/12/06 03:17:51;;;;;;;0.70;0.70;;;14.40;45.40;;;;;;5086946;28;48856;-20
2021/12/06 03:20:18;;;;;;;1.02;0.80;;;14.40;45.40;;;;;;5086957;28;46882;-21
2021/12/06 03:22:45;;;;;;;0.80;0.80;;;14.40;45.50;;;;;;5086902;28;46842;-17
2021/12/06 03:25:13;;;;;;;0.93;0.82;;;14.40;45.50;;;;;;5087503;28;47012;-17
2021/12/06 03:27:40;;;;;;;0.63;0.63;;;14.50;45.40;;;;;;5086857;27;47923;-17
2021/12/06 03:30:09;;;;;;;1.90;1.00;;;14.70;45.40;;;;;;5086811;28;47235;-16
2021/12/06 03:32:36;;;;;;;0.98;0.88;;;14.90;45.10;;;;;;5086913;28;46983;-20
2021/12/06 03:35:03;;;;;;;0.80;0.80;;;15.10;44.60;;;;;;5086982;28;46895;-20
2021/12/06 03:37:30;;;;;;;0.82;0.80;;;15.30;44.30;;;;;;5086861;28;49034;-21
2021/12/06 03:39:56;;;;;;;0.70;0.70;;;15.40;44.00;;;;;;5086548;28;46865;-21
2021/12/06 03:42:23;;;;;;;0.77;0.60;;;15.50;43.70;;;;;;5086892;28;46881;-20
2021/12/06 03:44:50;;;;;;;0.73;0.73;;;15.60;43.50;;;;;;5086876;28;46890;-16
2021/12/06 03:47:22;;;;;;;0.65;0.65;;;15.70;43.30;;;;;;5086788;28;48112;-17
2021/12/06 03:49:48;;;;;;;0.80;0.80;;;15.70;43.20;;;;;;5086351;28;46867;-17
2021/12/06 03:52:15;;;;;;;0.90;0.60;;;15.80;43.20;;;;;;5086441;28;46934;-21
2021/12/06 03:54:42;;;;;;;0.70;0.70;;;15.80;43.10;;;;;;5086347;28;46843;-20
2021/12/06 03:57:09;;;;;;;1.05;0.85;;;15.80;43.00;;;;;;5086784;28;48934;-22
2021/12/06 03:59:35;;;;;;;0.70;0.70;;;15.90;43.00;;;;;;5086502;28;46772;-17
2021/12/06 04:02:02;;;;;;;0.55;0.55;;;15.90;43.00;;;;;;5086564;28;46751;-17
2021/12/06 04:04:30;;;;;;;1.48;0.75;;;15.90;43.00;;;;;;5086356;28;46862;-20
2021/12/06 04:06:57;;;;;;;0.60;0.60;;;15.90;43.00;;;;;;5086365;28;48139;-20
2021/12/06 04:09:24;;;;;;;1.20;0.73;;;15.90;43.00;;;;;;5086368;28;47555;-21
2021/12/06 04:11:50;;;;;;;0.70;0.60;;;15.90;43.00;;;;;;5086174;28;47172;-20
2021/12/06 04:14:17;;;;;;;0.90;0.75;;;15.90;43.00;;;;;;5086569;28;46987;-20
2021/12/06 04:16:44;;;;;;;0.85;0.70;;;15.90;43.00;;;;;;5085682;28;47778;-16
2021/12/06 04:19:11;;;;;;;0.70;0.70;;;15.90;43.00;;;;;;5086019;28;46882;-20
2021/12/06 04:21:39;;;;;;;0.50;0.50;;;15.80;43.10;;;;;;5085169;27;47011;-16
2021/12/06 04:24:06;;;;;;;0.73;0.57;;;15.80;43.10;;;;;;5085900;28;46885;-16
2021/12/06 04:26:33;;;;;;;0.65;0.65;;;15.80;43.10;;;;;;5085757;28;47815;-20
2021/12/06 04:29:01;;;;;;;0.70;0.60;;;15.80;43.20;;;;;;5086101;28;46823;-20
2021/12/06 04:31:28;;;;;;;0.50;0.50;;;15.80;43.20;;;;;;5086015;28;46904;-16
2021/12/06 04:33:54;;;;;;;0.70;0.70;;;15.80;43.20;;;;;;5085925;28;46908;-16
2021/12/06 04:36:21;;;;;;;0.75;0.63;;;15.70;43.20;;;;;;5085872;28;48235;-21
2021/12/06 04:38:49;;;;;;;0.90;0.60;;;15.70;43.30;;;;;;5085752;28;46886;-17
2021/12/06 04:41:16;;;;;;;0.93;0.70;;;15.70;43.30;;;;;;5085707;28;46859;-21
2021/12/06 04:43:42;;;;;;;0.93;0.80;;;15.70;43.40;;;;;;5086128;28;46908;-16
2021/12/06 04:46:09;;;;;;;0.60;0.60;;;15.70;43.40;;;;;;5085640;28;49051;-16
2021/12/06 04:48:36;;;;;;;0.50;0.50;;;15.60;43.40;;;;;;5085921;28;47051;-20
2021/12/06 04:51:03;;;;;;;0.60;0.60;;;15.60;43.50;;;;;;5085834;28;46742;-20
2021/12/06 04:53:36;;;;;;;0.68;0.68;;;15.60;43.60;;;;;;5086029;28;47080;-20
2021/12/06 04:56:13;;;;;;;0.60;0.60;;;15.60;43.60;;;;;;5085072;28;48875;-17
2021/12/06 04:58:44;;;;;;;0.70;0.50;;;15.50;43.60;;;;;;5085711;28;46952;-21
2021/12/06 05:01:12;;;;;;;0.50;0.50;;;15.50;43.70;;;;;;5085396;28;47021;-20
2021/12/06 05:03:40;;;;;;;0.50;0.50;;;15.50;43.70;;;;;;5085555;27;46849;-21
2021/12/06 05:06:10;;;;;;;0.60;0.60;;;15.50;43.80;;;;;;5085029;28;47931;-21
2021/12/06 05:08:42;;;;;;;0.57;0.50;;;15.50;43.80;;;;;;5085257;28;47004;-20
2021/12/06 05:11:10;;;;;;;0.50;0.50;;;15.50;43.90;;;;;;5085648;28;47002;-21
2021/12/06 05:13:38;;;;;;;0.50;0.50;;;15.40;43.90;;;;;;5085684;28;46820;-21
2021/12/06 05:16:05;;;;;;;0.50;0.40;;;15.40;43.90;;;;;;5084922;28;47783;-21
2021/12/06 05:18:32;;;;;;;0.57;0.50;;;15.40;44.00;;;;;;5085170;28;47420;-21
2021/12/06 05:20:58;;;;;;;0.70;0.70;;;15.40;44.00;;;;;;5085319;28;46875;-20
2021/12/06 05:23:25;;;;;;;0.50;0.50;;;15.30;44.00;;;;;;5085297;28;46996;-20
2021/12/06 05:25:52;;;;;;;0.73;0.55;;;15.30;44.10;;;;;;5085133;28;48866;-18
2021/12/06 05:28:23;;;;;;;0.60;0.60;;;15.30;44.10;;;;;;5085375;28;46926;-17
2021/12/06 05:30:54;;;;;;;0.52;0.52;;;15.30;44.10;;;;;;5084913;28;47099;-17
2021/12/06 05:33:29;;;;;;;1.20;0.60;;;15.30;44.10;;;;;;5086493;27;47030;-21
2021/12/06 05:35:56;;;;;;;0.40;0.40;;;15.20;44.20;;;;;;5088227;28;47850;-20
2021/12/06 05:38:22;;;;;;;0.43;0.43;;;15.20;44.20;;;;;;5088785;28;46823;-17
2021/12/06 05:40:49;;;;;;;0.60;0.60;;;15.20;44.20;;;;;;5088453;28;46395;-17
2021/12/06 05:43:16;;;;;;;0.57;0.57;;;15.20;44.30;;;;;;5088935;28;46869;-20
2021/12/06 05:45:44;;;;;;;0.60;0.60;;;15.10;44.30;;;;;;5088160;28;48101;-16
2021/12/06 05:48:10;;;;;;;1.00;0.63;;;15.10;44.30;;;;;;5088661;28;46892;-16
2021/12/06 05:50:37;;;;;;;0.85;0.70;;;15.10;44.40;;;;;;5088786;28;46889;-17
2021/12/06 05:53:04;;;;;;;0.60;0.60;;;15.10;44.30;;;;;;5088514;28;46892;-20
2021/12/06 05:55:31;;;;;;;0.63;0.63;;;15.10;44.40;;;;;;5087646;27;48239;-17
2021/12/06 05:58:00;;;;;;;1.23;0.47;;;15.10;44.50;;;;;;5088457;28;47471;-21
2021/12/06 06:00:28;;;;;;;0.50;0.50;;;15.10;44.50;;;;;;5088302;28;46882;-17
2021/12/06 06:02:56;;;;;;;0.65;0.60;;;15.00;44.50;;;;;;5088380;28;46856;-17
2021/12/06 06:05:23;;;;;;;1.10;0.60;;;15.00;44.50;;;;;;5088147;28;48101;-16
2021/12/06 06:07:50;;;;;;;0.40;0.40;;;15.00;44.60;;;;;;5088018;28;47451;-17
2021/12/06 06:10:16;;;;;;;0.55;0.50;;;15.00;44.60;;;;;;5087826;28;46909;-17
2021/12/06 06:12:43;;;;;;;0.73;0.73;;;15.00;44.60;;;;;;5088461;28;47261;-17
2021/12/06 06:15:10;;;;;;;0.65;0.57;;;15.00;44.60;;;;;;5088184;28;47931;-21
2021/12/06 06:17:42;;;;;;;0.68;0.68;;;15.00;44.70;;;;;;5088163;28;46835;-16
2021/12/06 06:20:11;;;;;;;0.85;0.70;;;14.90;44.60;;;;;;5088057;28;46924;-21
2021/12/06 06:22:38;;;;;;;0.55;0.55;;;14.90;44.80;;;;;;5088023;28;46878;-20
2021/12/06 06:25:05;;;;;;;0.60;0.60;;;14.90;44.80;;;;;;5087840;28;47072;-20
2021/12/06 06:27:32;;;;;;;0.52;0.45;;;14.90;44.80;;;;;;5088129;28;46906;-20
2021/12/06 06:29:59;;;;;;;0.77;0.60;;;14.90;44.80;;;;;;5087744;28;46797;-16
2021/12/06 06:32:26;;;;;;;0.50;0.50;;;14.90;44.80;;;;;;5088200;28;47240;-20
2021/12/06 06:34:52;;;;;;;0.65;0.65;;;14.90;44.90;;;;;;5087871;28;48115;-16
2021/12/06 06:37:20;;;;;;;1.08;0.90;;;14.90;44.90;;;;;;5087597;28;47019;-17
2021/12/06 06:39:47;;;;;;;0.65;0.65;;;14.80;44.80;;;;;;5087909;28;47062;-20
2021/12/06 06:42:14;;;;;;;0.60;0.60;;;14.80;44.90;;;;;;5095850;27;46971;-21
2021/12/06 06:44:40;;;;;;;0.60;0.60;;;14.80;45.00;;;;;;5105282;27;48028;-21
2021/12/06 06:47:07;;;;;;;1.48;0.85;;;14.80;44.90;;;;;;5105670;27;46929;-17
2021/12/06 06:49:34;;;;;;;0.60;0.60;;;14.80;44.90;;;;;;5104964;27;46967;-16
2021/12/06 06:52:01;;;;;;;0.70;0.70;;;14.80;44.90;;;;;;5107445;27;47159;-17
2021/12/06 06:54:29;;;;;;;0.55;0.50;;;14.80;45.00;;;;;;5107098;27;46947;-17
2021/12/06 06:56:55;;;;;;;0.73;0.73;;;14.80;45.00;;;;;;5106776;27;47439;-21
2021/12/06 06:59:22;;;;;;;0.85;0.70;;;14.80;45.00;;;;;;5107444;27;47019;-17
2021/12/06 07:01:49;;;;;;;0.73;0.70;;;14.70;45.00;;;;;;5107819;27;46922;-21
2021/12/06 07:04:15;;;;;;;0.70;0.65;;;14.70;45.00;;;;;;5107885;27;48891;-21
2021/12/06 07:06:42;;;;;;;0.57;0.57;;;14.70;45.00;;;;;;5107845;27;47257;-21
2021/12/06 07:09:09;;;;;;;0.80;0.80;;;14.70;45.00;;;;;;5105595;27;46951;-17
2021/12/06 07:11:37;;;;;;;0.93;0.60;;;14.70;45.00;;;;;;5107813;27;47295;-17
2021/12/06 07:14:04;;;;;;;0.82;0.63;;;14.70;45.00;;;;;;5107889;27;48813;-20
2021/12/06 07:16:30;;;;;;;0.82;0.82;;;14.70;45.00;;;;;;5107538;27;46957;-17
2021/12/06 07:18:57;;;;;;;0.70;0.70;;;14.70;45.00;;;;;;5107497;27;46831;-21
2021/12/06 07:21:24;;;;;;;0.70;0.70;;;14.70;45.10;;;;;;5107492;27;46862;-21
2021/12/06 07:23:51;;;;;;;0.80;0.80;;;14.70;45.10;;;;;;5107591;27;48056;-20
2021/12/06 07:26:19;;;;;;;0.75;0.73;;;14.70;45.10;;;;;;5107375;27;46746;-20
2021/12/06 07:28:47;;;;;;;0.60;0.50;;;14.70;45.00;;;;;;5107624;27;46864;-20
2021/12/06 07:31:14;;;;;;;0.75;0.75;;;14.70;45.10;;;;;;5107594;27;47251;-20
2021/12/06 07:33:41;;;;;;;1.00;0.77;;;14.70;45.10;;;;;;5107490;27;49076;-17
2021/12/06 07:36:08;;;;;;;1.88;1.02;;;14.70;45.10;;;;;;5107296;27;46813;-16
2021/12/06 07:38:37;;;;;;;0.80;0.80;;;14.70;45.10;;;;;;5106021;27;46939;-20
2021/12/06 07:41:04;;;;;;;0.75;0.75;;;14.60;45.10;;;;;;5105927;27;47059;-21
2021/12/06 07:43:30;;;;;;;2.40;0.90;;;14.70;45.20;;;;;;5106324;27;47937;-17
2021/12/06 07:45:58;;;;;;;1.13;1.02;;;14.60;45.10;;;;;;5106814;27;47405;-17
2021/12/06 07:48:25;;;;;;;0.70;0.70;;;14.60;45.10;;;;;;5107177;27;46874;-17
2021/12/06 07:50:52;;;;;;;0.82;0.82;;;14.60;45.10;;;;;;5107316;27;46912;-16
2021/12/06 07:53:19;;;;;;;1.13;0.90;;;14.60;45.20;;;;;;5106812;27;48663;-18
2021/12/06 07:55:45;;;;;;;1.23;0.90;;;14.60;45.20;;;;;;5106159;27;47065;-21
2021/12/06 07:58:12;;;;;;;1.00;0.90;;;14.60;45.20;;;;;;5106205;27;47163;-21
2021/12/06 08:00:42;;;;;;;1.00;0.82;;;14.60;45.20;;;;;;5107204;27;47014;-17
2021/12/06 08:03:10;;;;;;;0.88;0.82;;;14.60;45.20;;;;;;5106800;27;46869;-20
2021/12/06 08:05:37;;;;;;;0.82;0.80;;;14.60;45.20;;;;;;5106668;27;47359;-20
2021/12/06 08:08:06;;;;;;;1.17;1.08;;;14.60;45.30;;;;;;5106821;27;46813;-21
2021/12/06 08:10:33;;;;;;;1.00;0.95;;;14.60;45.20;;;;;;5107130;27;47096;-21
2021/12/06 08:13:00;;;;;;;1.00;1.00;;;14.60;45.20;;;;;;5106501;27;48755;-17
2021/12/06 08:15:27;;;;;;;0.98;0.90;;;14.60;45.20;;;;;;5106780;27;46968;-20
2021/12/06 08:17:53;;;;;;;0.90;0.90;;;14.60;45.20;;;;;;5106830;27;47079;-21
2021/12/06 08:20:22;;;;;;;1.50;1.05;;;14.60;45.20;;;;;;5106517;27;47296;-21
2021/12/06 08:22:48;;;;;;;0.75;0.75;;;14.60;45.20;;;;;;5106598;27;49032;-20
2021/12/06 08:25:15;;;;;;;0.80;0.80;;;14.60;45.30;;;;;;5106092;27;46801;-21
2021/12/06 08:27:42;;;;;;;1.52;1.00;;;14.50;45.30;;;;;;5106849;27;46940;-18
2021/12/06 08:30:09;;;;;;;1.00;1.00;;;14.50;45.30;;;;;;5106793;27;46942;-20
2021/12/06 08:32:36;;;;;;;1.10;1.00;;;14.50;45.30;;;;;;5106573;27;46973;-17
2021/12/06 08:35:06;;;;;;;1.33;0.90;;;14.60;45.30;;;;;;5106209;27;46849;-21
2021/12/06 08:37:35;;;;;;;1.02;1.02;;;14.50;45.30;;;;;;5104093;27;46765;-22
2021/12/06 08:40:02;;;;;;;1.08;1.08;;;14.50;45.30;;;;;;5101196;27;47154;-21
2021/12/06 08:42:32;;;;;;;0.80;0.80;;;14.50;45.40;;;;;;5104411;27;47024;-22
2021/12/06 08:44:59;;;;;;;0.80;0.80;;;14.50;45.30;;;;;;5099191;27;47016;-22
2021/12/06 08:47:26;;;;;;;1.08;1.00;;;14.50;45.40;;;;;;5103677;27;47233;-20
2021/12/06 08:49:52;;;;;;;1.23;1.08;;;14.50;45.40;;;;;;5104362;27;46891;-19
2021/12/06 08:52:19;;;;;;;2.00;1.13;;;14.50;45.40;;;;;;5104945;27;47059;-20
2021/12/06 08:54:47;;;;;;;1.70;1.20;;;14.50;45.40;;;;;;5105906;27;46743;-20
2021/12/06 08:57:14;;;;;;;0.80;0.80;;;14.50;45.40;;;;;;5105917;27;46931;-18
2021/12/06 08:59:41;;;;;;;1.40;1.10;;;14.50;45.40;;;;;;5106107;27;47079;-19
2021/12/06 09:02:07;;;;;;;1.52;1.20;;;14.50;45.50;;;;;;5105903;27;46913;-15
2021/12/06 09:04:37;;;;;;;1.30;1.20;;;14.50;45.40;;;;;;5106242;27;46820;-19
2021/12/06 09:07:09;;;;;;;1.00;1.00;;;14.50;45.50;;;;;;5106071;27;46785;-19
2021/12/06 09:09:36;;;;;;;0.85;0.85;;;14.50;45.60;;;;;;5105785;27;47118;-15
2021/12/06 09:12:05;;;;;;;1.50;1.10;;;14.50;45.50;;;;;;5105689;27;46909;-16
2021/12/06 09:14:32;;;;;;;1.45;0.90;;;14.60;45.50;;;;;;5105605;27;46924;-15
2021/12/06 09:16:58;;;;;;;1.98;1.17;;;14.80;45.40;;;;;;5106002;27;46941;-20
2021/12/06 09:19:25;;;;;;;1.00;1.00;;;15.00;45.20;;;;;;5106240;27;46880;-19
2021/12/06 09:21:52;;;;;;;1.13;1.02;;;15.20;44.80;;;;;;5105586;27;48102;-19
2021/12/06 09:24:20;;;;;;;1.73;1.15;;;15.40;44.40;;;;;;5105807;27;46957;-19
2021/12/06 09:26:47;;;;;;;1.75;1.10;;;15.60;44.10;;;;;;5105340;27;46888;-15
2021/12/06 09:29:15;;;;;;;1.20;1.10;;;15.70;43.80;;;;;;5106010;27;47265;-15
2021/12/06 09:31:42;;;;;;;1.60;1.00;;;15.90;43.50;;;;;;5105333;27;47944;-17
2021/12/06 09:34:09;;;;;;;1.27;1.10;;;16.00;43.20;;;;;;5105331;27;46833;-15
2021/12/06 09:36:36;;;;;;;1.20;1.10;;;16.10;43.00;;;;;;5105792;27;46841;-20
2021/12/06 09:39:03;;;;;;;1.25;1.15;;;16.20;42.80;;;;;;5104394;27;47139;-20
2021/12/06 09:41:30;;;;;;;1.58;1.40;;;16.30;42.70;;;;;;5105339;27;48788;-19
2021/12/06 09:43:59;;;;;;;1.30;1.17;;;16.40;42.60;;;;;;5105258;27;46881;-19
2021/12/06 09:46:28;;;;;;;1.88;1.08;;;16.40;42.40;;;;;;5105009;27;46802;-15
2021/12/06 09:48:55;;;;;;;1.55;1.20;;;16.50;42.30;;;;;;5105651;27;46884;-19
2021/12/06 09:51:25;;;;;;;2.40;1.15;;;16.50;42.20;;;;;;5105202;27;49022;-19
2021/12/06 09:53:52;;;;;;;1.27;1.17;;;16.60;42.10;;;;;;5105637;27;47506;-19
2021/12/06 09:56:22;;;;;;;1.10;1.00;;;16.70;42.00;;;;;;5104933;27;46934;-19
2021/12/06 09:58:49;;;;;;;1.90;1.30;;;16.70;41.90;;;;;;5105394;27;47154;-19
2021/12/06 10:01:19;;;;;;;1.40;1.30;;;16.70;41.80;;;;;;5105315;27;49061;-15
2021/12/06 10:03:48;;;;;;;1.33;1.20;;;16.70;41.70;;;;;;5105060;27;46877;-15
2021/12/06 10:06:15;;;;;;;1.08;0.98;;;16.80;41.80;;;;;;5105198;27;46929;-15
2021/12/06 10:08:44;;;;;;;1.63;1.35;;;16.80;41.80;;;;;;5105513;27;46896;-15
2021/12/06 10:11:11;;;;;;;1.60;1.50;;;16.80;41.80;;;;;;5104787;27;48053;-19
2021/12/06 10:13:39;;;;;;;1.30;1.20;;;16.80;41.90;;;;;;5105181;27;47689;-15
2021/12/06 10:16:06;;;;;;;1.92;1.23;;;16.70;41.80;;;;;;5104805;27;46901;-15
2021/12/06 10:18:33;;;;;;;1.35;1.25;;;16.70;41.80;;;;;;5105158;27;46904;-16
2021/12/06 10:21:01;;;;;;;1.27;1.17;;;16.70;41.90;;;;;;5106862;27;48893;-20
2021/12/06 10:23:29;;;;;;;1.48;1.23;;;16.70;42.00;;;;;;5108477;27;47152;-20
2021/12/06 10:25:56;;;;;;;1.50;1.40;;;16.70;41.90;;;;;;5104884;27;47017;-21
2021/12/06 10:28:25;;;;;;;2.33;1.27;;;16.70;42.00;;;;;;5085918;28;47092;-21
2021/12/06 10:30:53;;;;;;;1.30;1.20;;;16.70;42.20;;;;;;5084486;28;47934;-20
2021/12/06 10:33:21;;;;;;;1.38;1.17;;;16.60;42.20;;;;;;5085729;28;46916;-20
2021/12/06 10:35:49;;;;;;;1.50;1.40;;;16.60;42.30;;;;;;5086345;28;46939;-20
2021/12/06 10:38:20;;;;;;;1.73;1.30;;;16.60;42.40;;;;;;5086791;28;47077;-19
2021/12/06 10:40:47;;;;;;;3.78;1.40;;;16.50;42.40;;;;;;5087219;28;49153;-19
2021/12/06 10:43:14;;;;;;;1.35;1.25;;;16.60;42.50;;;;;;5087554;28;46870;-19
2021/12/06 10:45:42;;;;;;;1.80;1.30;;;16.50;42.50;;;;;;5087474;28;46949;-20
2021/12/06 10:48:13;;;;;;;1.85;1.75;;;16.50;42.60;;;;;;5087812;28;46912;-19
2021/12/06 10:50:43;;;;;;;1.95;1.17;;;16.50;42.60;;;;;;5087528;28;48887;-16
2021/12/06 10:53:11;;;;;;;1.70;1.30;;;16.50;42.60;;;;;;5087691;28;47245;-19
2021/12/06 10:55:39;;;;;;;2.10;2.00;;;16.50;42.80;;;;;;5087423;28;46836;-20
2021/12/06 10:58:07;;;;;;;1.48;1.38;;;16.40;42.80;;;;;;5087628;28;47215;-20
2021/12/06 11:00:40;;;;;;;1.70;1.60;;;16.40;42.80;;;;;;5087080;28;48878;-20
2021/12/06 11:03:18;;;;;;;1.98;1.52;;;16.40;42.90;;;;;;5087301;28;46811;-17
2021/12/06 11:05:45;;;;;;;1.88;1.30;;;16.40;43.00;;;;;;5087081;28;46771;-16
2021/12/06 11:08:13;;;;;;;1.50;1.40;;;16.40;43.10;;;;;;5087411;28;46952;-15
2021/12/06 11:10:44;;;;;;;1.40;1.30;;;16.40;43.10;;;;;;5086942;27;47065;-20
2021/12/06 11:13:15;;;;;;;1.60;1.50;;;16.30;43.20;;;;;;5087131;28;46816;-19
2021/12/06 11:16:03;;;;;;;1.50;1.40;;;16.30;43.30;;;;;;5087424;28;46797;-16
2021/12/06 11:18:38;;;;;;;1.65;1.55;;;16.30;43.40;;;;;;5087512;28;46872;-21
2021/12/06 11:21:13;;;;;;;1.50;1.40;;;16.30;43.50;;;;;;5086991;28;48241;-20
2021/12/06 11:23:58;;;;;;;1.70;1.45;;;16.20;43.50;;;;;;5087303;28;47103;-15
2021/12/06 11:26:26;;;;;;;1.52;1.42;;;16.20;43.60;;;;;;5086950;27;46792;-20
2021/12/06 11:28:53;;;;;;;2.08;1.45;;;16.20;43.60;;;;;;5087366;28;46996;-20
2021/12/06 11:31:20;;;;;;;1.65;1.48;;;16.20;43.70;;;;;;5086450;27;46944;-20
2021/12/06 11:33:57;;;;;;;1.70;1.60;;;16.20;43.80;;;;;;5086963;28;46914;-20
2021/12/06 11:36:25;;;;;;;1.73;1.63;;;16.20;43.90;;;;;;5086895;28;46786;-16
2021/12/06 11:38:57;;;;;;;1.50;1.40;;;16.20;43.90;;;;;;5087103;28;47307;-16
2021/12/06 11:41:23;;;;;;;1.17;1.13;;;16.10;43.90;;;;;;5086616;27;49031;-20
2021/12/06 11:43:51;;;;;;;1.48;1.38;;;16.10;44.00;;;;;;5086768;28;46883;-20
2021/12/06 11:46:27;;;;;;;2.60;1.40;;;16.10;44.00;;;;;;5086707;28;46837;-15
2021/12/06 11:48:54;;;;;;;1.58;1.42;;;16.10;44.00;;;;;;5087238;28;46914;-16
2021/12/06 11:51:21;;;;;;;1.67;1.50;;;16.20;43.90;;;;;;5086376;28;48222;-19
2021/12/06 11:53:49;;;;;;;1.55;1.45;;;16.30;43.70;;;;;;5086333;28;47026;-19
2021/12/06 11:56:18;;;;;;;1.45;1.20;;;16.40;43.60;;;;;;5085414;28;46978;-20
2021/12/06 11:58:46;;;;;;;2.05;1.40;;;16.50;43.30;;;;;;5086643;28;46958;-16
2021/12/06 12:01:16;;;;;;;1.38;1.27;;;16.70;43.10;;;;;;5085746;27;47814;-17
2021/12/06 12:03:43;;;;;;;2.35;1.50;;;16.80;43.40;;;;;;5085961;28;47063;-16
2021/12/06 12:06:27;;;;;;;1.50;1.40;;;16.90;42.60;;;;;;5086220;28;46968;-15
2021/12/06 12:09:06;;;;;;;1.42;1.33;;;17.00;42.40;;;;;;5086435;28;47174;-16
2021/12/06 12:11:33;;;;;;;1.30;1.20;;;17.10;42.40;;;;;;5086164;28;48401;-16
2021/12/06 12:13:59;;;;;;;1.40;1.30;;;17.10;42.30;;;;;;5086255;28;46988;-16
2021/12/06 12:16:27;;;;;;;1.60;1.40;;;17.10;42.20;;;;;;5085952;28;46786;-15
2021/12/06 12:18:54;;;;;;;1.33;1.23;;;17.20;42.20;;;;;;5086375;28;47274;-16
2021/12/06 12:21:22;;;;;;;1.45;1.35;;;17.20;42.10;;;;;;5086037;28;47803;-16
2021/12/06 12:23:48;;;;;;;1.50;1.33;;;17.20;42.00;;;;;;5086201;28;47115;-16
2021/12/06 12:26:19;;;;;;;1.25;1.25;;;17.20;42.00;;;;;;5085686;28;46877;-16
2021/12/06 12:28:52;;;;;;;1.70;1.40;;;17.20;42.00;;;;;;5086137;28;46925;-20
2021/12/06 12:31:20;;;;;;;1.35;1.25;;;17.30;42.00;;;;;;5085785;28;47067;-20
2021/12/06 12:33:48;;;;;;;1.67;1.33;;;17.30;42.00;;;;;;5084971;28;47076;-21
2021/12/06 12:36:18;;;;;;;1.35;1.25;;;17.30;42.00;;;;;;5085627;28;46946;-16
2021/12/06 12:38:46;;;;;;;1.40;1.30;;;17.20;42.00;;;;;;5086256;28;46951;-16
2021/12/06 12:41:15;;;;;;;1.30;1.23;;;17.20;42.10;;;;;;5085563;28;48096;-16
2021/12/06 12:43:43;;;;;;;1.20;1.20;;;17.20;42.20;;;;;;5089386;27;47417;-16
2021/12/06 12:46:12;;;;;;;2.00;1.60;;;17.20;42.30;;;;;;5091552;27;46995;-20
2021/12/06 12:48:49;;;;;;;2.72;1.48;;;17.10;42.30;;;;;;5084284;28;47246;-20
2021/12/06 12:51:17;;;;;;;2.20;1.35;;;17.10;42.50;;;;;;5083602;28;48098;-20
2021/12/06 12:53:50;;;;;;;1.55;1.45;;;17.10;42.50;;;;;;5084071;28;46922;-20
2021/12/06 12:56:20;;;;;;;1.70;1.58;;;17.00;42.60;;;;;;5083048;28;47044;-20